Time;durP1;ratioP1;P1;durP2;ratioP2;P2;SDS_P1;SDS_P2;PMS_P1;PMS_P2;Temp;Humidity;BMP_temperature;BMP_pressure;BME280_temperature;BME280_humidity;BME280_pressure;Samples;Min_cycle;Max_cycle;Signal;HPM_P1;HPM_P2
2021/06/23 00:02:26;;;;;;;24.40;12.90;;;14.90;99.90;;;;;;6290191;22;20410;-82
2021/06/23 00:04:53;;;;;;;20.03;13.00;;;14.90;99.90;;;;;;6290858;22;20449;-81
2021/06/23 00:07:20;;;;;;;23.93;13.20;;;14.90;99.90;;;;;;6291836;22;20490;-82
2021/06/23 00:09:46;;;;;;;24.00;12.80;;;15.00;99.90;;;;;;6290376;22;20430;-81
2021/06/23 00:12:16;;;;;;;23.13;12.40;;;15.00;99.90;;;;;;6291888;22;20450;-82
2021/06/23 00:14:43;;;;;;;23.40;13.03;;;15.00;99.90;;;;;;6291633;22;20461;-81
2021/06/23 00:17:10;;;;;;;23.67;14.53;;;15.00;99.90;;;;;;6290517;22;20506;-81
2021/06/23 00:19:37;;;;;;;21.07;12.00;;;15.00;99.90;;;;;;6290827;22;20427;-81
2021/06/23 00:22:05;;;;;;;21.80;12.37;;;15.00;99.90;;;;;;6290700;22;20435;-81
2021/06/23 00:24:31;;;;;;;22.20;12.63;;;15.00;99.90;;;;;;6289878;22;20506;-81
2021/06/23 00:26:58;;;;;;;24.63;14.17;;;15.00;99.90;;;;;;6290448;22;20411;-81
2021/06/23 00:29:26;;;;;;;20.70;11.37;;;15.00;99.90;;;;;;6290213;22;20427;-81
2021/06/23 00:31:53;;;;;;;25.30;13.87;;;14.90;99.90;;;;;;6291500;22;20801;-81
2021/06/23 00:34:23;;;;;;;21.20;12.30;;;14.90;99.90;;;;;;6291280;22;20431;-81
2021/06/23 00:36:50;;;;;;;23.33;13.27;;;14.90;99.90;;;;;;6290539;22;20465;-84
2021/06/23 00:39:17;;;;;;;23.23;12.43;;;14.90;99.90;;;;;;6296890;22;20435;-83
2021/06/23 00:41:44;;;;;;;24.23;15.00;;;14.90;99.90;;;;;;6291289;22;20458;-82
2021/06/23 00:44:12;;;;;;;20.60;11.97;;;14.80;99.90;;;;;;6291700;22;20533;-83
2021/06/23 00:46:42;;;;;;;24.83;11.73;;;14.80;99.90;;;;;;6291062;22;20414;-83
2021/06/23 00:49:09;;;;;;;20.70;12.20;;;14.80;99.90;;;;;;6291514;22;20407;-83
2021/06/23 00:51:36;;;;;;;22.33;12.63;;;14.90;99.90;;;;;;6292248;22;20423;-83
2021/06/23 00:54:08;;;;;;;25.67;13.70;;;14.90;99.90;;;;;;6292491;22;20479;-83
2021/06/23 00:56:35;;;;;;;21.10;12.17;;;14.80;99.90;;;;;;6293438;22;20474;-82
2021/06/23 00:59:02;;;;;;;26.13;12.90;;;14.80;99.90;;;;;;6293047;22;20411;-82
2021/06/23 01:01:31;;;;;;;23.37;13.10;;;14.80;99.90;;;;;;6292753;22;20438;-82
2021/06/23 01:04:00;;;;;;;18.93;11.53;;;14.80;99.90;;;;;;6293159;22;20469;-84
2021/06/23 01:06:28;;;;;;;21.97;11.57;;;14.80;99.90;;;;;;6293552;22;20407;-82
2021/06/23 01:08:55;;;;;;;25.80;13.70;;;14.80;99.90;;;;;;6292178;22;20422;-81
2021/06/23 01:11:22;;;;;;;24.97;12.07;;;14.70;99.90;;;;;;6293119;22;20447;-83
2021/06/23 01:13:58;;;;;;;20.37;11.40;;;14.80;99.90;;;;;;6292938;22;20431;-82
2021/06/23 01:16:26;;;;;;;21.03;12.23;;;14.80;99.90;;;;;;6295260;22;20387;-82
2021/06/23 01:18:53;;;;;;;22.40;11.33;;;14.80;99.90;;;;;;6294992;22;20407;-82
2021/06/23 01:21:21;;;;;;;24.40;12.40;;;14.90;99.90;;;;;;6295989;22;20446;-83
2021/06/23 01:23:50;;;;;;;22.10;11.10;;;14.90;99.90;;;;;;6295275;22;20470;-82
2021/06/23 01:26:16;;;;;;;25.70;12.20;;;14.90;99.90;;;;;;6295705;22;20392;-82
2021/06/23 01:28:43;;;;;;;21.73;11.47;;;14.80;99.90;;;;;;6295491;22;20433;-83
2021/06/23 01:31:10;;;;;;;20.90;11.80;;;14.80;99.90;;;;;;6295522;22;21000;-83
2021/06/23 01:33:37;;;;;;;17.70;9.90;;;14.80;99.90;;;;;;6295306;22;20409;-83
2021/06/23 01:36:05;;;;;;;25.60;12.40;;;14.80;99.90;;;;;;6294732;22;20962;-82
2021/06/23 01:38:32;;;;;;;22.87;11.80;;;14.80;99.90;;;;;;6295614;22;20434;-83
2021/06/23 01:41:00;;;;;;;20.20;11.23;;;14.80;99.90;;;;;;6294236;22;20438;-83
2021/06/23 01:43:27;;;;;;;21.07;11.20;;;14.80;99.90;;;;;;6294429;22;20438;-83
2021/06/23 01:45:54;;;;;;;23.37;12.40;;;14.80;99.90;;;;;;6294951;22;20411;-83
2021/06/23 01:48:25;;;;;;;23.33;11.67;;;14.80;99.90;;;;;;6293647;22;20446;-83
2021/06/23 01:50:54;;;;;;;23.60;10.97;;;14.80;99.90;;;;;;6293213;22;20513;-83
2021/06/23 01:53:21;;;;;;;21.10;10.70;;;14.70;99.90;;;;;;6292578;22;20434;-82
2021/06/23 01:55:49;;;;;;;24.13;10.80;;;14.70;99.90;;;;;;6293112;22;20438;-83
2021/06/23 01:58:18;;;;;;;22.67;11.63;;;14.70;99.90;;;;;;6292700;22;20422;-83
2021/06/23 02:00:54;;;;;;;19.67;10.37;;;14.70;99.90;;;;;;6291775;22;20426;-83
2021/06/23 02:03:45;;;;;;;20.77;10.47;;;14.80;99.90;;;;;;6291188;22;20417;-83
2021/06/23 02:06:48;;;;;;;23.00;11.47;;;14.80;99.90;;;;;;6292670;22;20415;-83
2021/06/23 02:09:31;;;;;;;23.17;11.20;;;14.80;99.90;;;;;;6261716;22;20486;-82
2021/06/23 02:12:08;;;;;;;23.37;11.50;;;14.70;99.90;;;;;;6292317;22;20413;-82
2021/06/23 02:14:41;;;;;;;21.83;11.37;;;14.70;99.90;;;;;;6289237;22;20398;-83
2021/06/23 02:17:10;;;;;;;27.87;11.73;;;14.70;99.90;;;;;;6289225;22;20417;-82
2021/06/23 02:19:42;;;;;;;21.27;12.03;;;14.70;99.90;;;;;;6285570;22;20431;-83
2021/06/23 02:22:15;;;;;;;18.50;10.80;;;14.70;99.90;;;;;;6282871;22;20411;-83
2021/06/23 02:24:42;;;;;;;23.07;11.60;;;14.70;99.90;;;;;;6288217;22;20459;-81
2021/06/23 02:27:09;;;;;;;19.93;11.40;;;14.70;99.90;;;;;;6287820;22;20485;-83
2021/06/23 02:29:39;;;;;;;22.30;11.87;;;14.70;99.90;;;;;;6284281;22;20768;-83
2021/06/23 02:32:07;;;;;;;21.03;10.73;;;14.70;99.90;;;;;;6284677;22;20474;-83
2021/06/23 02:34:34;;;;;;;21.87;11.80;;;14.80;99.90;;;;;;6284173;22;20403;-82
2021/06/23 02:37:02;;;;;;;21.43;10.93;;;14.80;99.90;;;;;;6285040;22;20426;-83
2021/06/23 02:39:29;;;;;;;22.47;10.50;;;14.80;99.90;;;;;;6282559;22;20481;-82
2021/06/23 02:41:56;;;;;;;26.00;10.23;;;14.80;99.90;;;;;;6282602;22;20405;-82
2021/06/23 02:44:23;;;;;;;23.20;10.80;;;14.70;99.90;;;;;;6282428;22;20451;-83
2021/06/23 02:46:51;;;;;;;19.87;11.43;;;14.70;99.90;;;;;;6281773;22;20406;-84
2021/06/23 02:49:19;;;;;;;25.17;11.37;;;14.70;99.90;;;;;;6280933;22;20437;-84
2021/06/23 02:51:48;;;;;;;21.07;10.67;;;14.70;99.90;;;;;;6280424;22;20912;-82
2021/06/23 02:54:16;;;;;;;18.03;11.10;;;14.70;99.90;;;;;;6280637;22;20437;-83
2021/06/23 02:56:43;;;;;;;22.13;10.90;;;14.70;99.90;;;;;;6281756;22;20406;-83
2021/06/23 02:59:11;;;;;;;22.17;11.27;;;14.70;99.90;;;;;;6280693;22;20442;-83
2021/06/23 03:01:39;;;;;;;23.33;11.63;;;14.70;99.90;;;;;;6280656;22;20470;-83
2021/06/23 03:04:07;;;;;;;22.77;11.17;;;14.70;99.90;;;;;;6282949;22;21059;-82
2021/06/23 03:06:34;;;;;;;23.90;11.10;;;14.70;99.90;;;;;;6284628;22;20442;-83
2021/06/23 03:09:01;;;;;;;27.70;11.50;;;14.70;99.90;;;;;;6284071;22;20521;-83
2021/06/23 03:11:33;;;;;;;21.10;11.00;;;14.70;99.90;;;;;;6285881;22;20510;-84
2021/06/23 03:14:00;;;;;;;20.27;10.37;;;14.70;99.90;;;;;;6283390;22;20427;-83
2021/06/23 03:16:27;;;;;;;20.17;11.00;;;14.60;99.90;;;;;;6281630;22;20486;-83
2021/06/23 03:18:54;;;;;;;22.67;10.40;;;14.70;99.90;;;;;;6280328;22;20810;-83
2021/06/23 03:21:22;;;;;;;19.90;10.50;;;14.70;99.90;;;;;;6281603;22;20851;-84
2021/06/23 03:23:51;;;;;;;21.00;10.73;;;14.70;99.90;;;;;;6280885;22;20439;-84
2021/06/23 03:26:18;;;;;;;21.63;11.00;;;14.70;99.90;;;;;;6281259;22;20491;-83
2021/06/23 03:28:45;;;;;;;21.83;10.53;;;14.70;99.90;;;;;;6280788;22;20549;-83
2021/06/23 03:31:12;;;;;;;22.27;10.93;;;14.70;99.90;;;;;;6280335;22;20422;-84
2021/06/23 03:33:40;;;;;;;22.53;10.97;;;14.70;99.90;;;;;;6291045;22;20465;-82
2021/06/23 03:36:07;;;;;;;19.10;11.33;;;14.60;99.90;;;;;;6292885;22;20399;-82
2021/06/23 03:38:35;;;;;;;21.30;10.90;;;14.60;99.90;;;;;;6292800;22;20438;-82
2021/06/23 03:41:02;;;;;;;22.40;11.50;;;14.70;99.90;;;;;;6293174;22;20434;-83
2021/06/23 03:43:29;;;;;;;21.20;11.10;;;14.70;99.90;;;;;;6293715;22;20474;-81
2021/06/23 03:45:56;;;;;;;19.37;10.73;;;14.70;99.90;;;;;;6293676;22;20529;-83
2021/06/23 03:48:23;;;;;;;21.87;10.63;;;14.70;99.90;;;;;;6292822;22;20439;-82
2021/06/23 03:50:50;;;;;;;26.10;10.73;;;14.70;99.90;;;;;;6284122;22;20427;-83
2021/06/23 03:53:17;;;;;;;21.37;11.07;;;14.70;99.90;;;;;;6281646;22;20415;-83
2021/06/23 03:55:45;;;;;;;24.43;11.07;;;14.70;99.90;;;;;;6282254;22;20478;-82
2021/06/23 03:58:12;;;;;;;17.37;8.97;;;14.70;99.90;;;;;;6282033;22;20439;-83
2021/06/23 04:00:39;;;;;;;23.07;12.30;;;14.70;99.90;;;;;;6280393;22;20458;-83
2021/06/23 04:03:06;;;;;;;23.83;10.20;;;14.70;99.90;;;;;;6281509;22;20490;-83
2021/06/23 04:05:33;;;;;;;22.60;11.10;;;14.70;99.90;;;;;;6280464;22;20443;-83
2021/06/23 04:08:00;;;;;;;20.60;9.87;;;14.70;99.90;;;;;;6282363;22;20501;-82
2021/06/23 04:10:27;;;;;;;21.03;11.13;;;14.70;99.90;;;;;;6289249;22;20435;-82
2021/06/23 04:12:55;;;;;;;18.43;10.07;;;14.70;99.90;;;;;;6290016;22;20430;-81
2021/06/23 04:15:21;;;;;;;23.67;11.27;;;14.70;99.90;;;;;;6281671;22;20466;-82
2021/06/23 04:17:48;;;;;;;18.90;9.83;;;14.70;99.90;;;;;;6281659;22;20905;-81
2021/06/23 04:20:16;;;;;;;19.20;10.37;;;14.80;99.90;;;;;;6280985;22;20501;-81
2021/06/23 04:22:43;;;;;;;25.30;12.50;;;14.80;99.90;;;;;;6289161;22;20411;-80
2021/06/23 04:25:13;;;;;;;20.97;10.40;;;14.80;99.90;;;;;;6289622;22;20443;-80
2021/06/23 04:27:41;;;;;;;18.83;10.37;;;14.80;99.90;;;;;;6286996;22;20413;-79
2021/06/23 04:30:12;;;;;;;22.63;10.43;;;14.80;99.90;;;;;;6287043;22;20458;-80
2021/06/23 04:32:39;;;;;;;26.80;12.00;;;14.80;99.90;;;;;;6289284;22;20423;-80
2021/06/23 04:35:07;;;;;;;25.13;11.13;;;14.80;99.90;;;;;;6289991;22;20437;-81
2021/06/23 04:37:35;;;;;;;23.47;11.47;;;14.80;99.90;;;;;;6295497;22;20482;-81
2021/06/23 04:40:03;;;;;;;19.70;10.70;;;14.80;99.90;;;;;;6293878;22;20430;-82
2021/06/23 04:42:30;;;;;;;21.00;10.70;;;14.80;99.90;;;;;;6294792;22;20992;-83
2021/06/23 04:44:57;;;;;;;19.80;10.00;;;14.90;99.90;;;;;;6293214;22;20441;-80
2021/06/23 04:47:25;;;;;;;23.20;11.30;;;15.00;99.90;;;;;;6283068;22;20442;-81
2021/06/23 04:49:52;;;;;;;19.20;9.60;;;14.80;99.90;;;;;;6280409;22;20498;-81
2021/06/23 04:52:19;;;;;;;23.17;12.67;;;14.90;99.90;;;;;;6282596;22;20497;-83
2021/06/23 04:54:45;;;;;;;23.20;11.07;;;14.90;99.90;;;;;;6282504;22;20599;-82
2021/06/23 04:57:12;;;;;;;21.73;11.00;;;15.00;99.90;;;;;;6282037;22;20755;-80
2021/06/23 04:59:39;;;;;;;21.10;9.70;;;15.00;99.90;;;;;;6281513;22;20522;-81
2021/06/23 05:02:06;;;;;;;19.87;9.83;;;15.10;99.90;;;;;;6281991;22;20487;-81
2021/06/23 05:04:35;;;;;;;22.53;10.70;;;15.10;99.90;;;;;;6283056;22;20511;-80
2021/06/23 05:07:04;;;;;;;17.50;10.23;;;15.20;99.90;;;;;;6281528;22;20407;-82
2021/06/23 05:09:31;;;;;;;18.60;9.30;;;15.20;99.90;;;;;;6280990;22;20465;-83
2021/06/23 05:11:58;;;;;;;22.00;11.20;;;15.30;99.90;;;;;;6282850;22;20417;-82
2021/06/23 05:14:25;;;;;;;24.50;10.30;;;15.30;99.90;;;;;;6282082;22;20828;-84
2021/06/23 05:16:52;;;;;;;22.23;10.00;;;15.40;99.90;;;;;;6282464;22;20407;-81
2021/06/23 05:19:19;;;;;;;21.07;9.33;;;15.40;99.90;;;;;;6280977;22;20417;-83
2021/06/23 05:21:48;;;;;;;19.97;10.00;;;15.40;99.90;;;;;;6282042;22;20414;-82
2021/06/23 05:24:15;;;;;;;23.23;9.80;;;15.40;99.90;;;;;;6281753;22;20445;-84
2021/06/23 05:26:41;;;;;;;20.90;10.03;;;15.50;99.90;;;;;;6282551;22;20519;-82
2021/06/23 05:29:09;;;;;;;23.43;10.30;;;15.50;99.90;;;;;;6281815;22;20413;-82
2021/06/23 05:31:36;;;;;;;21.07;9.90;;;15.50;99.90;;;;;;6281982;22;20485;-82
2021/06/23 05:34:03;;;;;;;20.03;9.93;;;15.50;99.90;;;;;;6281770;22;20919;-83
2021/06/23 05:36:30;;;;;;;23.33;11.43;;;15.50;99.90;;;;;;6281774;22;20442;-83
2021/06/23 05:38:58;;;;;;;24.33;9.27;;;15.50;99.90;;;;;;6280784;22;20900;-83
2021/06/23 05:41:25;;;;;;;23.30;10.37;;;15.60;99.90;;;;;;6281340;22;20458;-83
2021/06/23 05:43:52;;;;;;;21.80;9.70;;;15.60;99.90;;;;;;6273492;22;20976;-78
2021/06/23 05:46:18;;;;;;;20.27;10.30;;;15.70;99.90;;;;;;6279117;22;20513;-78
2021/06/23 05:48:45;;;;;;;24.17;10.13;;;15.70;99.90;;;;;;6278746;22;20414;-78
2021/06/23 05:51:12;;;;;;;24.07;10.60;;;15.80;99.90;;;;;;6278537;22;20497;-79
2021/06/23 05:53:39;;;;;;;17.90;9.33;;;15.70;99.90;;;;;;6277356;22;20813;-78
2021/06/23 05:56:08;;;;;;;21.93;10.93;;;15.70;99.90;;;;;;6277839;22;21078;-78
2021/06/23 05:58:40;;;;;;;19.80;10.67;;;15.70;99.90;;;;;;6277126;22;20414;-78
2021/06/23 06:01:07;;;;;;;21.93;10.43;;;15.70;99.90;;;;;;6277521;22;20441;-77
2021/06/23 06:03:34;;;;;;;25.70;10.03;;;15.80;99.90;;;;;;6275580;22;20435;-77
2021/06/23 06:06:02;;;;;;;22.37;10.37;;;15.80;99.90;;;;;;6275787;22;20481;-80
2021/06/23 06:08:29;;;;;;;21.50;9.73;;;15.90;99.90;;;;;;6249349;22;20414;-79
2021/06/23 06:10:56;;;;;;;22.50;9.70;;;16.00;99.90;;;;;;6276268;22;20935;-80
2021/06/23 06:13:24;;;;;;;26.60;10.43;;;16.00;99.90;;;;;;6277095;22;20423;-78
2021/06/23 06:15:51;;;;;;;22.97;9.60;;;16.10;99.90;;;;;;6277812;22;20897;-77
2021/06/23 06:18:18;;;;;;;24.40;10.20;;;16.20;99.90;;;;;;6276008;22;20781;-77
2021/06/23 06:20:45;;;;;;;21.17;10.13;;;16.20;99.90;;;;;;6276263;22;20413;-78
2021/06/23 06:23:12;;;;;;;24.50;10.50;;;16.20;99.90;;;;;;6276962;22;20436;-79
2021/06/23 06:25:39;;;;;;;22.43;9.13;;;16.40;99.90;;;;;;6278265;22;20541;-78
2021/06/23 06:28:06;;;;;;;20.30;9.10;;;16.40;99.90;;;;;;6278019;22;20869;-77
2021/06/23 06:30:34;;;;;;;22.40;9.23;;;16.50;99.90;;;;;;6279409;22;20421;-78
2021/06/23 06:33:01;;;;;;;20.50;9.83;;;16.60;99.90;;;;;;6280086;22;20505;-79
2021/06/23 06:35:28;;;;;;;24.80;9.70;;;16.70;99.90;;;;;;6282611;22;20958;-79
2021/06/23 06:37:56;;;;;;;21.50;9.43;;;16.80;99.90;;;;;;6281261;22;20403;-79
2021/06/23 06:40:23;;;;;;;20.23;9.00;;;16.90;99.90;;;;;;6280057;22;20921;-79
2021/06/23 06:42:50;;;;;;;27.83;9.90;;;16.90;99.90;;;;;;6282058;22;20438;-78
2021/06/23 06:45:18;;;;;;;21.30;9.73;;;16.90;99.90;;;;;;6281983;22;20454;-79
2021/06/23 06:47:46;;;;;;;25.83;9.30;;;17.00;99.90;;;;;;6280423;22;20415;-79
2021/06/23 06:50:13;;;;;;;21.70;8.67;;;17.10;99.90;;;;;;6281210;22;20897;-79
2021/06/23 06:52:40;;;;;;;23.50;8.83;;;17.10;99.90;;;;;;6281794;22;20960;-78
2021/06/23 06:55:09;;;;;;;24.53;9.97;;;17.10;99.90;;;;;;6280460;22;20502;-77
2021/06/23 06:57:36;;;;;;;23.07;8.77;;;17.10;99.90;;;;;;6278843;22;20489;-79
2021/06/23 07:00:05;;;;;;;24.60;10.00;;;17.10;99.90;;;;;;6280785;22;20461;-79
2021/06/23 07:02:32;;;;;;;24.03;9.40;;;17.20;99.90;;;;;;6280792;22;20430;-79
2021/06/23 07:05:01;;;;;;;24.40;8.60;;;17.20;99.90;;;;;;6283125;22;20453;-79
2021/06/23 07:07:28;;;;;;;22.10;8.93;;;17.20;99.90;;;;;;6284755;22;20478;-79
2021/06/23 07:09:55;;;;;;;22.43;7.97;;;17.30;99.90;;;;;;6287052;22;20430;-78
2021/06/23 07:12:22;;;;;;;25.90;8.70;;;17.20;99.90;;;;;;6283445;22;20559;-78
2021/06/23 07:14:51;;;;;;;23.80;8.57;;;17.30;99.90;;;;;;6282858;22;20470;-79
2021/06/23 07:17:18;;;;;;;20.00;8.23;;;17.40;99.90;;;;;;6281879;22;20967;-78
2021/06/23 07:19:45;;;;;;;24.87;8.60;;;17.40;99.90;;;;;;6281383;22;20531;-77
2021/06/23 07:22:13;;;;;;;24.17;9.13;;;17.50;99.90;;;;;;6279114;22;20443;-79
2021/06/23 07:24:40;;;;;;;22.87;9.30;;;17.60;99.90;;;;;;6280565;22;20437;-80
2021/06/23 07:27:08;;;;;;;32.90;9.00;;;17.50;99.90;;;;;;6278818;22;20477;-79
2021/06/23 07:29:35;;;;;;;27.20;9.07;;;17.70;99.90;;;;;;6279360;22;21082;-79
2021/06/23 07:32:04;;;;;;;21.70;8.17;;;17.80;99.90;;;;;;6279088;22;20754;-79
2021/06/23 07:37:25;;;;;;;26.60;7.70;;;18.00;99.90;;;;;;6278189;22;20376;-78
2021/06/23 07:39:53;;;;;;;22.97;8.60;;;18.10;99.90;;;;;;6278180;22;20490;-79
2021/06/23 07:42:20;;;;;;;22.57;7.90;;;18.20;99.90;;;;;;6278573;22;20411;-80
2021/06/23 07:44:49;;;;;;;24.60;8.97;;;18.30;99.90;;;;;;6277619;22;20409;-79
2021/06/23 07:47:19;;;;;;;27.73;7.50;;;18.30;99.90;;;;;;6278017;22;20430;-79
2021/06/23 07:49:47;;;;;;;28.57;8.87;;;18.30;99.90;;;;;;6277522;22;20493;-81
2021/06/23 07:52:19;;;;;;;23.83;6.57;;;18.40;99.90;;;;;;6279566;22;20411;-80
2021/06/23 07:55:00;;;;;;;27.73;7.20;;;18.40;99.90;;;;;;6279453;22;20749;-80
2021/06/23 08:08:36;;;;;;;26.80;8.27;;;19.00;99.90;;;;;;6278303;22;20876;-81
2021/06/23 08:11:15;;;;;;;28.90;6.90;;;19.00;99.90;;;;;;6274291;22;20446;-79
2021/06/23 08:13:42;;;;;;;22.10;6.73;;;18.90;99.90;;;;;;6278237;22;20782;-79
2021/06/23 08:16:09;;;;;;;29.53;8.07;;;18.80;99.90;;;;;;6278008;22;20967;-79
2021/06/23 08:18:35;;;;;;;24.47;7.97;;;18.70;99.90;;;;;;6276778;22;20415;-79
2021/06/23 08:21:02;;;;;;;27.57;7.57;;;18.80;99.90;;;;;;6277323;22;20407;-81
2021/06/23 08:23:29;;;;;;;23.00;7.40;;;18.80;99.90;;;;;;6277766;22;20505;-79
2021/06/23 08:25:56;;;;;;;23.90;7.43;;;18.80;99.90;;;;;;6277404;22;20586;-78
2021/06/23 08:28:24;;;;;;;30.03;7.20;;;18.80;99.90;;;;;;6275977;22;20741;-80
2021/06/23 08:30:51;;;;;;;22.73;8.03;;;18.70;99.90;;;;;;6277417;22;21015;-79
2021/06/23 08:33:18;;;;;;;21.20;8.17;;;18.50;99.90;;;;;;6277193;22;21017;-79
2021/06/23 08:35:45;;;;;;;22.90;7.20;;;18.50;99.90;;;;;;6277067;22;20399;-79
2021/06/23 08:38:12;;;;;;;26.60;7.33;;;18.40;99.90;;;;;;6278953;22;20501;-79
2021/06/23 08:40:39;;;;;;;23.47;7.27;;;18.50;99.90;;;;;;6277833;22;20442;-79
2021/06/23 08:43:06;;;;;;;24.30;8.00;;;18.40;99.90;;;;;;6266103;22;20449;-79
2021/06/23 08:45:34;;;;;;;23.03;7.30;;;18.30;99.90;;;;;;6276179;22;20526;-79
2021/06/23 08:48:03;;;;;;;23.47;7.37;;;18.30;99.90;;;;;;6278041;22;20443;-79
2021/06/23 08:50:30;;;;;;;26.90;7.67;;;18.30;99.90;;;;;;6277693;22;20414;-79
2021/06/23 08:52:57;;;;;;;23.07;7.07;;;18.50;99.90;;;;;;6276761;22;20513;-79
2021/06/23 08:55:24;;;;;;;27.27;8.60;;;18.50;99.90;;;;;;6278503;22;20441;-79
2021/06/23 08:57:53;;;;;;;29.20;9.93;;;18.50;99.90;;;;;;6278289;22;20414;-79
2021/06/23 09:00:22;;;;;;;24.30;8.33;;;18.50;99.90;;;;;;6277851;22;20454;-79
2021/06/23 09:02:50;;;;;;;25.53;8.33;;;18.50;99.90;;;;;;6276642;22;20427;-79
2021/06/23 09:05:19;;;;;;;24.43;9.07;;;18.50;99.90;;;;;;6276393;22;20923;-79
2021/06/23 09:07:48;;;;;;;21.93;6.47;;;18.50;99.90;;;;;;6277437;22;20434;-78
2021/06/23 09:10:36;;;;;;;23.40;7.53;;;18.30;99.90;;;;;;6275791;22;20414;-78
2021/06/23 09:13:17;;;;;;;21.70;6.90;;;18.20;99.90;;;;;;6276423;22;20431;-80
2021/06/23 09:15:51;;;;;;;35.90;6.97;;;18.30;99.90;;;;;;6276395;22;20407;-79
2021/06/23 09:18:21;;;;;;;23.27;6.50;;;18.50;99.90;;;;;;6275486;22;20420;-78
2021/06/23 09:20:51;;;;;;;30.23;7.37;;;18.60;99.90;;;;;;6276927;22;20403;-78
2021/06/23 09:23:37;;;;;;;24.47;7.10;;;18.70;99.90;;;;;;6276505;22;20932;-78
2021/06/23 09:26:09;;;;;;;24.70;7.60;;;18.80;99.90;;;;;;6277035;22;20473;-78
2021/06/23 09:28:36;;;;;;;27.50;8.80;;;18.70;99.90;;;;;;6275810;22;20714;-78
2021/06/23 09:31:06;;;;;;;24.30;6.97;;;18.80;99.90;;;;;;6277610;22;20494;-78
2021/06/23 09:33:34;;;;;;;23.30;7.50;;;19.00;99.90;;;;;;6276782;22;20427;-79
2021/06/23 09:36:03;;;;;;;29.87;7.80;;;19.10;99.90;;;;;;6277010;22;20403;-79
2021/06/23 09:38:37;;;;;;;27.50;7.00;;;19.20;99.90;;;;;;6278300;22;20688;-80
2021/06/23 09:41:06;;;;;;;23.73;5.53;;;19.40;99.90;;;;;;6280434;22;20403;-79
2021/06/23 09:43:37;;;;;;;26.37;5.70;;;19.60;99.90;;;;;;6279377;22;20526;-78
2021/06/23 09:46:14;;;;;;;32.40;7.13;;;19.60;99.90;;;;;;6279922;22;20530;-79
2021/06/23 09:48:42;;;;;;;26.90;6.17;;;19.80;99.90;;;;;;6279538;22;20391;-79
2021/06/23 09:51:14;;;;;;;26.53;8.30;;;20.10;99.90;;;;;;6278671;22;20406;-79
2021/06/23 09:53:41;;;;;;;25.87;6.23;;;20.00;99.90;;;;;;6279759;22;20524;-79
2021/06/23 09:56:31;;;;;;;25.20;6.67;;;20.10;99.90;;;;;;6279794;22;20403;-79
2021/06/23 09:58:59;;;;;;;27.00;6.87;;;20.30;99.90;;;;;;6279356;22;20391;-79
2021/06/23 10:01:27;;;;;;;32.20;8.53;;;20.40;99.90;;;;;;6279804;22;20395;-79
2021/06/23 10:03:57;;;;;;;34.20;7.73;;;20.50;99.90;;;;;;6280007;22;20497;-79
2021/06/23 10:06:26;;;;;;;28.33;7.50;;;20.80;99.90;;;;;;6279879;22;20964;-79
2021/06/23 10:09:12;;;;;;;31.47;7.93;;;21.00;99.90;;;;;;6278868;22;20499;-79
2021/06/23 10:11:40;;;;;;;31.07;7.43;;;21.20;99.90;;;;;;6279042;22;20472;-79
2021/06/23 10:14:09;;;;;;;32.07;7.77;;;21.30;99.90;;;;;;6278352;22;20413;-79
2021/06/23 10:16:36;;;;;;;34.17;6.80;;;21.40;99.90;;;;;;6277958;22;20446;-80
2021/06/23 10:19:06;;;;;;;27.67;7.13;;;21.40;99.90;;;;;;6276341;22;20490;-79
2021/06/23 10:21:33;;;;;;;26.10;7.60;;;21.30;99.90;;;;;;6279491;22;20437;-78
2021/06/23 10:24:01;;;;;;;23.60;7.70;;;21.50;99.90;;;;;;6278633;22;20507;-82
2021/06/23 10:26:30;;;;;;;27.10;9.07;;;21.40;99.90;;;;;;6279225;22;20545;-79
2021/06/23 10:28:58;;;;;;;30.13;9.80;;;21.50;99.90;;;;;;6279684;22;20415;-79
2021/06/23 10:31:28;;;;;;;24.63;9.80;;;21.50;99.90;;;;;;6279113;22;20489;-79
2021/06/23 10:33:56;;;;;;;20.53;8.13;;;21.70;99.90;;;;;;6280047;22;20510;-79
2021/06/23 10:36:26;;;;;;;21.60;7.73;;;21.80;99.90;;;;;;6277765;22;20490;-78
2021/06/23 10:38:54;;;;;;;22.17;7.60;;;21.70;99.90;;;;;;6278453;22;20415;-78
2021/06/23 10:41:22;;;;;;;25.30;7.73;;;21.80;99.90;;;;;;6279117;22;20413;-78
2021/06/23 10:44:16;;;;;;;23.20;8.70;;;21.90;99.90;;;;;;6278897;22;20829;-78
2021/06/23 10:46:43;;;;;;;31.23;8.60;;;21.90;99.90;;;;;;6276064;22;20968;-79
2021/06/23 10:49:10;;;;;;;25.47;8.10;;;21.90;99.90;;;;;;6277779;22;20489;-79
2021/06/23 10:51:40;;;;;;;26.93;7.90;;;22.10;99.90;;;;;;6279742;22;20411;-79
2021/06/23 10:54:46;;;;;;;33.03;9.60;;;22.30;99.90;;;;;;6273974;22;20789;-79
2021/06/23 10:57:26;;;;;;;79.57;68.77;;;22.40;99.90;;;;;;6246666;22;20501;-79
2021/06/23 10:59:54;;;;;;;52.57;17.63;;;22.60;99.90;;;;;;6279056;22;20805;-79
2021/06/23 11:02:34;;;;;;;277.10;259.67;;;22.70;99.90;;;;;;6279044;22;20452;-79
2021/06/23 11:05:14;;;;;;;54.97;19.70;;;22.80;99.90;;;;;;6277842;22;20456;-79
2021/06/23 11:07:45;;;;;;;42.87;12.37;;;22.60;99.90;;;;;;6274274;22;20446;-79
2021/06/23 11:10:30;;;;;;;38.90;6.30;;;22.60;99.90;;;;;;6279012;22;20403;-80
2021/06/23 11:12:59;;;;;;;40.43;9.20;;;22.70;99.90;;;;;;6278307;22;20462;-78
2021/06/23 11:15:36;;;;;;;692.23;650.37;;;22.90;99.90;;;;;;6278626;22;20933;-78
2021/06/23 11:18:23;;;;;;;50.80;16.57;;;23.10;99.90;;;;;;6279102;22;20387;-79
2021/06/23 11:20:51;;;;;;;118.37;107.17;;;23.10;99.90;;;;;;6277776;22;20889;-79
2021/06/23 11:23:55;;;;;;;51.10;16.90;;;23.00;99.90;;;;;;6278905;22;20454;-79
2021/06/23 11:26:57;;;;;;;275.77;258.87;;;23.00;99.90;;;;;;6253338;22;20512;-80
2021/06/23 11:29:34;;;;;;;632.37;595.77;;;23.00;99.90;;;;;;6278911;22;20931;-79
2021/06/23 11:32:09;;;;;;;57.97;27.37;;;23.00;99.90;;;;;;6278209;22;20776;-79
2021/06/23 11:34:46;;;;;;;541.27;509.70;;;22.90;99.90;;;;;;6278596;22;20477;-81
2021/06/23 11:37:15;;;;;;;44.73;12.17;;;22.80;99.90;;;;;;6278322;22;20857;-81
2021/06/23 11:39:43;;;;;;;94.57;84.43;;;22.80;99.90;;;;;;6277287;22;20893;-80
2021/06/23 11:42:12;;;;;;;40.80;8.77;;;22.90;99.90;;;;;;6278053;22;20421;-81
2021/06/23 11:44:39;;;;;;;99.07;89.40;;;23.00;99.90;;;;;;6277705;22;20375;-80
2021/06/23 11:47:07;;;;;;;76.33;53.50;;;23.10;99.90;;;;;;6278028;22;20698;-80
2021/06/23 11:49:35;;;;;;;47.77;21.87;;;23.30;99.90;;;;;;6276255;22;20426;-80
2021/06/23 11:52:04;;;;;;;509.57;476.27;;;23.50;99.90;;;;;;6278374;22;20403;-79
2021/06/23 11:54:31;;;;;;;190.83;176.13;;;23.80;99.90;;;;;;6276903;22;20406;-80
2021/06/23 11:56:58;;;;;;;61.90;23.80;;;24.00;99.90;;;;;;6278720;22;20407;-80
2021/06/23 11:59:26;;;;;;;141.80;128.87;;;24.00;99.90;;;;;;6278324;22;20417;-79
2021/06/23 12:01:53;;;;;;;584.33;538.63;;;24.10;99.90;;;;;;6277871;22;20446;-80
2021/06/23 12:04:20;;;;;;;457.87;432.47;;;24.30;99.90;;;;;;6277726;22;20441;-80
2021/06/23 12:06:47;;;;;;;216.87;199.37;;;24.50;99.90;;;;;;6276824;22;20477;-80
2021/06/23 12:09:14;;;;;;;1999.90;999.90;;;25.40;99.90;;;;;;6278583;22;20489;-80
2021/06/23 12:11:42;;;;;;;1999.90;999.90;;;25.80;99.90;;;;;;6278053;22;20468;-80
2021/06/23 12:14:09;;;;;;;934.10;870.93;;;25.70;99.90;;;;;;6278636;22;20426;-80
2021/06/23 12:16:38;;;;;;;1999.90;999.90;;;25.30;99.90;;;;;;6277166;22;20406;-80
2021/06/23 12:19:04;;;;;;;1613.77;922.83;;;25.30;99.90;;;;;;6277520;22;20398;-80
2021/06/23 12:21:31;;;;;;;722.80;675.00;;;25.40;99.90;;;;;;6278145;22;20489;-81
2021/06/23 12:23:58;;;;;;;1999.90;999.90;;;25.40;99.90;;;;;;6277956;22;20466;-81
2021/06/23 12:26:26;;;;;;;633.47;583.23;;;25.30;99.90;;;;;;6277595;22;20410;-80
2021/06/23 12:28:52;;;;;;;1999.90;999.90;;;25.50;99.90;;;;;;6277820;22;20437;-80
2021/06/23 12:31:20;;;;;;;1999.90;999.90;;;25.50;99.90;;;;;;6277424;22;20478;-80
2021/06/23 12:33:48;;;;;;;1999.90;999.90;;;25.60;99.90;;;;;;6277552;22;20430;-81
2021/06/23 12:36:17;;;;;;;1999.90;999.90;;;26.20;99.90;;;;;;6279340;22;20439;-81
2021/06/23 12:38:44;;;;;;;1999.90;999.90;;;26.40;99.90;;;;;;6280836;22;20474;-81
2021/06/23 12:41:11;;;;;;;1999.90;999.90;;;26.90;99.90;;;;;;6279524;22;20498;-82
2021/06/23 12:43:38;;;;;;;1999.90;999.90;;;28.00;99.90;;;;;;6279988;22;20430;-81
2021/06/23 12:46:05;;;;;;;1999.90;999.90;;;29.60;99.90;;;;;;6278837;22;20940;-82
2021/06/23 12:48:32;;;;;;;1999.90;999.90;;;30.00;99.90;;;;;;6280140;22;20446;-82
2021/06/23 12:51:00;;;;;;;1999.90;999.90;;;29.90;99.90;;;;;;6281244;22;20421;-81
2021/06/23 12:53:27;;;;;;;1999.90;999.90;;;29.40;99.90;;;;;;6280717;22;20485;-82